Ogden Dunes, Indiana
Current Conditions -  °F | °C
As of 5:56 PM on Sunday 23 Nov 2014 (Local Time) from KVPZ Reporting Station
Moderate Rain Moderate Rain  
Wind Chill: 50°   Ceiling: 400
Heat Index: 50°   Visibility: 4mi
Dew Point: 50°   Wind: 8mph
Humidity: 100%   Direction: 120°ESE
Pressure: 29.4"   Gusts: NA
Location:  41.5825°N, 87.1726°W
Report Text: KVPZ 232356Z AUTO 12007KT 4SM RA BR BKN004 OVC010 10/10 A2940 RMK AO2 CIG 003V008 SLP956 P0015 60054 T01000100 10111 20100 58046 TSNO
Loading
Personal Weather Stations






























Interactive Weather Map New forecast layout! Learn more

10-Day Weather Forecast

Advertisements
Track Severe Weather on mobile